Time;durP1;ratioP1;P1;durP2;ratioP2;P2;SDS_P1;SDS_P2;PMS_P1;PMS_P2;Temp;Humidity;BMP_temperature;BMP_pressure;BME280_temperature;BME280_humidity;BME280_pressure;Samples;Min_cycle;Max_cycle;Signal;HPM_P1;HPM_P2
2021/05/16 00:01:05;;;;;;;2.33;0.90;;;13.70;93.50;;;;;;5066493;28;20050;-66
2021/05/16 00:03:30;;;;;;;;;;;13.60;93.40;;;;;;5066681;28;20497;-67
2021/05/16 00:05:56;;;;;;;1.45;1.10;;;13.60;93.60;;;;;;5066207;28;19915;-67
2021/05/16 00:08:21;;;;;;;;;;;13.60;93.70;;;;;;5067005;28;20024;-67
2021/05/16 00:10:47;;;;;;;5.55;1.45;;;13.60;93.80;;;;;;5066068;28;19908;-66
2021/05/16 00:13:13;;;;;;;;;;;13.60;93.80;;;;;;5066986;28;20024;-67
2021/05/16 00:15:39;;;;;;;4.07;1.05;;;13.60;93.90;;;;;;5066490;28;19904;-67
2021/05/16 00:18:05;;;;;;;;;;;13.60;94.00;;;;;;5066644;28;20809;-66
2021/05/16 00:20:32;;;;;;;5.05;1.65;;;13.60;94.10;;;;;;5065984;28;19990;-67
2021/05/16 00:22:58;;;;;;;1.73;1.30;;;13.60;94.00;;;;;;5066273;28;20029;-67
2021/05/16 00:25:25;;;;;;;4.18;1.88;;;13.60;94.20;;;;;;5066538;28;20111;-67
2021/05/16 00:27:51;;;;;;;5.13;1.67;;;13.60;94.50;;;;;;5065974;28;20029;-66
2021/05/16 00:30:20;;;;;;;4.60;1.67;;;13.60;94.60;;;;;;5066418;28;20932;-67
2021/05/16 00:32:46;;;;;;;6.15;2.20;;;13.50;94.60;;;;;;5066171;28;20029;-67
2021/05/16 00:35:14;;;;;;;4.70;2.05;;;13.60;94.60;;;;;;5065728;28;20499;-66
2021/05/16 00:37:40;;;;;;;5.65;2.25;;;13.60;94.60;;;;;;5066022;28;20037;-67
2021/05/16 00:40:07;;;;;;;2.90;1.40;;;13.60;94.30;;;;;;5066191;28;20393;-67
2021/05/16 00:42:33;;;;;;;7.30;3.03;;;13.60;94.30;;;;;;5066141;28;20104;-67
2021/05/16 00:45:04;;;;;;;;;;;13.60;94.30;;;;;;5066328;28;20116;-67
2021/05/16 00:47:30;;;;;;;5.35;2.35;;;13.60;94.30;;;;;;5066011;28;19915;-67
2021/05/16 00:49:56;;;;;;;;;;;13.60;94.40;;;;;;5066483;28;20028;-67
2021/05/16 00:52:26;;;;;;;3.33;1.27;;;13.60;94.50;;;;;;5066046;28;19915;-67
2021/05/16 00:54:53;;;;;;;2.20;1.30;;;13.60;94.50;;;;;;5065784;28;20405;-67
2021/05/16 00:57:19;;;;;;;2.28;1.35;;;13.60;94.70;;;;;;5065788;28;20025;-67
2021/05/16 00:59:45;;;;;;;2.97;1.17;;;13.50;94.60;;;;;;5065969;28;20039;-67
2021/05/16 01:02:11;;;;;;;;;;;13.60;94.80;;;;;;5066131;28;20401;-68
2021/05/16 01:04:40;;;;;;;2.17;1.50;;;13.60;94.70;;;;;;5066088;28;19915;-67
2021/05/16 01:07:06;;;;;;;4.05;0.98;;;13.60;94.80;;;;;;5069460;28;20560;-67
2021/05/16 01:09:31;;;;;;;;;;;13.60;94.40;;;;;;5070228;28;20074;-67
2021/05/16 01:11:58;;;;;;;9.73;1.20;;;13.50;94.40;;;;;;5069951;28;20692;-68
2021/05/16 01:14:32;;;;;;;3.50;1.10;;;13.60;94.40;;;;;;5069312;28;20443;-66
2021/05/16 01:16:58;;;;;;;4.95;1.42;;;13.60;94.50;;;;;;5069438;28;20025;-66
2021/05/16 01:19:24;;;;;;;1.58;1.13;;;13.60;94.50;;;;;;5069624;28;20166;-66
2021/05/16 01:21:51;;;;;;;;;;;13.50;94.70;;;;;;5070076;28;20130;-66
2021/05/16 01:24:21;;;;;;;11.23;1.40;;;13.50;94.70;;;;;;5069647;28;20168;-66
2021/05/16 01:26:48;;;;;;;2.30;0.95;;;13.50;94.80;;;;;;5069178;28;20028;-65
2021/05/16 01:29:15;;;;;;;2.88;1.00;;;13.50;94.90;;;;;;5068316;28;20052;-67
2021/05/16 01:31:42;;;;;;;6.97;1.40;;;13.50;94.90;;;;;;5069163;28;20025;-67
2021/05/16 01:34:08;;;;;;;2.63;1.10;;;13.50;94.90;;;;;;5069306;28;20099;-66
2021/05/16 01:36:34;;;;;;;6.35;1.20;;;13.50;94.90;;;;;;5068525;28;20520;-66
2021/05/16 01:39:00;;;;;;;2.70;1.70;;;13.50;95.00;;;;;;5067899;28;20437;-67
2021/05/16 01:41:26;;;;;;;3.15;1.88;;;13.50;94.90;;;;;;5069127;28;20072;-67
2021/05/16 01:43:54;;;;;;;3.80;1.65;;;13.50;94.90;;;;;;5069577;28;20025;-67
2021/05/16 01:46:20;;;;;;;7.03;2.10;;;13.50;94.90;;;;;;5069030;28;20055;-66
2021/05/16 01:48:45;;;;;;;;;;;13.50;95.10;;;;;;5067577;28;20032;-67
2021/05/16 01:51:12;;;;;;;6.40;2.17;;;13.40;95.20;;;;;;5069187;28;20007;-66
2021/05/16 01:53:40;;;;;;;4.43;1.55;;;13.40;95.40;;;;;;5069178;28;20021;-67
2021/05/16 01:56:07;;;;;;;3.40;1.45;;;13.40;95.30;;;;;;5068549;28;20017;-67
2021/05/16 01:58:35;;;;;;;5.05;1.33;;;13.30;95.30;;;;;;5068900;28;20032;-66
2021/05/16 02:01:01;;;;;;;2.35;1.60;;;13.30;95.40;;;;;;5068730;28;20432;-66
2021/05/16 02:03:27;;;;;;;;;;;13.40;95.50;;;;;;5069050;28;20477;-67
2021/05/16 02:05:53;;;;;;;3.13;1.40;;;13.40;95.40;;;;;;5068274;28;19912;-67
2021/05/16 02:08:19;;;;;;;;;;;13.30;95.10;;;;;;5069192;28;20320;-66
2021/05/16 02:10:45;;;;;;;2.20;1.13;;;13.30;95.10;;;;;;5068475;28;19908;-65
2021/05/16 02:13:10;;;;;;;;;;;13.30;95.20;;;;;;5069335;28;20127;-65
2021/05/16 02:15:36;;;;;;;3.95;1.08;;;13.30;95.20;;;;;;5068438;28;20006;-66
2021/05/16 02:18:03;;;;;;;6.88;1.35;;;13.30;95.20;;;;;;5068716;28;20132;-65
2021/05/16 02:20:28;;;;;;;2.10;1.48;;;13.30;95.20;;;;;;5068009;28;20033;-66
2021/05/16 02:22:54;;;;;;;;;;;13.30;95.20;;;;;;5068574;28;20070;-66
2021/05/16 02:25:20;;;;;;;4.28;1.30;;;13.20;95.00;;;;;;5068943;28;19908;-66
2021/05/16 02:27:49;;;;;;;6.10;1.30;;;13.20;95.10;;;;;;5068102;28;20027;-68
2021/05/16 02:30:17;;;;;;;4.78;1.10;;;13.10;95.10;;;;;;5068559;28;20052;-68
2021/05/16 02:32:43;;;;;;;1.80;1.10;;;13.10;95.20;;;;;;5068113;28;20031;-68
2021/05/16 02:35:10;;;;;;;;;;;13.00;95.30;;;;;;5068517;28;20040;-68
2021/05/16 02:37:36;;;;;;;1.98;0.90;;;12.90;95.40;;;;;;5068011;28;19935;-68
2021/05/16 02:40:04;;;;;;;2.35;1.10;;;12.90;95.50;;;;;;5068687;28;20035;-68
2021/05/16 02:42:30;;;;;;;1.98;0.90;;;12.80;95.60;;;;;;5067969;28;20047;-68
2021/05/16 02:44:55;;;;;;;;;;;12.80;95.60;;;;;;5068950;28;20495;-68
2021/05/16 02:47:21;;;;;;;5.55;1.45;;;12.80;95.50;;;;;;5067087;28;19913;-67
2021/05/16 02:49:47;;;;;;;;;;;12.80;95.60;;;;;;5066943;28;20032;-68
2021/05/16 02:52:13;;;;;;;1.95;0.90;;;12.70;95.70;;;;;;5067605;28;19908;-68
2021/05/16 02:54:38;;;;;;;;;;;12.70;95.70;;;;;;5068458;28;20026;-68
2021/05/16 02:57:04;;;;;;;4.90;1.05;;;12.70;95.80;;;;;;5067794;28;19904;-68
2021/05/16 02:59:30;;;;;;;2.75;1.00;;;12.70;95.80;;;;;;5067677;28;20451;-68
2021/05/16 03:01:55;;;;;;;5.03;0.98;;;12.70;95.80;;;;;;5067786;28;20025;-67
2021/05/16 03:04:21;;;;;;;9.05;0.90;;;12.60;95.80;;;;;;5067467;28;20035;-68
2021/05/16 03:06:47;;;;;;;;;;;12.60;95.80;;;;;;5067626;28;20089;-68
2021/05/16 03:09:12;;;;;;;8.35;1.20;;;12.50;95.90;;;;;;5067687;28;19912;-67
2021/05/16 03:11:38;;;;;;;;;;;12.50;96.00;;;;;;5068094;28;20035;-68
2021/05/16 03:14:04;;;;;;;2.42;1.20;;;12.50;96.10;;;;;;5067670;28;19941;-67
2021/05/16 03:16:29;;;;;;;;;;;12.50;96.10;;;;;;5067854;28;20021;-68
2021/05/16 03:18:55;;;;;;;4.93;1.23;;;12.50;96.20;;;;;;5066892;28;19908;-67
2021/05/16 03:21:21;;;;;;;3.72;1.75;;;12.50;96.20;;;;;;5067553;28;20037;-67
2021/05/16 03:23:46;;;;;;;;;;;12.50;96.30;;;;;;5067589;28;20025;-68
2021/05/16 03:26:12;;;;;;;2.50;1.60;;;12.50;96.30;;;;;;5067475;28;20012;-68
2021/05/16 03:28:38;;;;;;;;;;;12.50;96.20;;;;;;5067444;28;20047;-67
2021/05/16 03:31:03;;;;;;;8.77;2.03;;;12.50;96.20;;;;;;5067353;28;19912;-68
2021/05/16 03:33:29;;;;;;;;;;;12.50;96.10;;;;;;5067383;28;20549;-68
2021/05/16 03:35:54;;;;;;;6.38;2.08;;;12.50;96.10;;;;;;5066957;28;19908;-68
2021/05/16 03:38:20;;;;;;;10.25;3.17;;;12.60;96.00;;;;;;5066933;28;20027;-67
2021/05/16 03:40:46;;;;;;;;;;;12.60;96.00;;;;;;5065800;28;20046;-67
2021/05/16 03:43:11;;;;;;;14.73;2.35;;;12.60;96.10;;;;;;5067366;28;19908;-67
2021/05/16 03:45:37;;;;;;;17.00;3.15;;;12.60;96.10;;;;;;5067030;28;20078;-66
2021/05/16 03:48:03;;;;;;;;;;;12.60;96.00;;;;;;5067036;28;20413;-66
2021/05/16 03:50:29;;;;;;;8.65;2.95;;;12.60;95.90;;;;;;5066680;28;20450;-66
2021/05/16 03:52:55;;;;;;;11.85;3.10;;;12.60;95.80;;;;;;5067004;28;20029;-65
2021/05/16 03:55:21;;;;;;;;;;;12.70;95.50;;;;;;5066995;28;20397;-66
2021/05/16 03:57:49;;;;;;;4.45;3.15;;;12.70;95.40;;;;;;5065645;28;20288;-66
2021/05/16 04:00:15;;;;;;;10.45;3.65;;;12.70;95.50;;;;;;5066592;28;20032;-66
2021/05/16 04:02:41;;;;;;;16.45;4.00;;;12.70;95.40;;;;;;5066122;28;20054;-66
2021/05/16 04:05:07;;;;;;;;;;;12.80;95.20;;;;;;5067212;28;20111;-66
2021/05/16 04:07:32;;;;;;;4.32;2.67;;;12.80;95.20;;;;;;5066432;28;19908;-67
2021/05/16 04:09:58;;;;;;;4.72;2.38;;;12.80;95.20;;;;;;5067009;28;20430;-66
2021/05/16 04:12:23;;;;;;;;;;;12.90;95.20;;;;;;5066874;28;20036;-66
2021/05/16 04:14:50;;;;;;;11.48;2.40;;;12.90;94.90;;;;;;5066903;28;19991;-67
2021/05/16 04:17:17;;;;;;;4.13;2.20;;;13.00;94.80;;;;;;5066468;28;20128;-66
2021/05/16 04:19:43;;;;;;;7.95;2.75;;;13.10;94.70;;;;;;5065368;28;20039;-67
2021/05/16 04:22:08;;;;;;;;;;;13.10;94.80;;;;;;5066965;28;20020;-67
2021/05/16 04:24:34;;;;;;;8.57;2.20;;;13.20;95.00;;;;;;5066404;28;19911;-67
2021/05/16 04:27:00;;;;;;;7.30;2.42;;;13.20;94.90;;;;;;5064885;28;20104;-68
2021/05/16 04:29:25;;;;;;;6.03;1.80;;;13.30;95.00;;;;;;5065173;28;20516;-67
2021/05/16 04:31:51;;;;;;;;;;;13.30;95.00;;;;;;5066949;28;20032;-67
2021/05/16 04:34:16;;;;;;;4.28;2.42;;;13.40;95.10;;;;;;5064950;28;20451;-67
2021/05/16 04:36:42;;;;;;;;;;;13.40;95.00;;;;;;5066542;28;20032;-68
2021/05/16 04:39:08;;;;;;;6.35;2.72;;;13.50;94.80;;;;;;5066610;28;19966;-66
2021/05/16 04:41:34;;;;;;;5.75;2.22;;;13.50;94.80;;;;;;5069757;28;20020;-68
2021/05/16 04:44:00;;;;;;;;;;;13.50;94.50;;;;;;5070832;28;20562;-66
2021/05/16 04:46:26;;;;;;;4.07;1.80;;;13.50;94.40;;;;;;5070401;28;20384;-66
2021/05/16 04:48:52;;;;;;;8.02;2.47;;;13.60;94.80;;;;;;5070190;28;20028;-66
2021/05/16 04:51:18;;;;;;;2.85;1.90;;;13.60;94.40;;;;;;5070331;28;20046;-67
2021/05/16 04:53:43;;;;;;;;;;;13.70;94.50;;;;;;5070874;28;20508;-66
2021/05/16 04:56:09;;;;;;;4.88;2.08;;;13.80;94.60;;;;;;5070404;28;19905;-67
2021/05/16 04:58:34;;;;;;;;;;;13.80;94.50;;;;;;5070296;28;20025;-66
2021/05/16 05:01:01;;;;;;;5.40;1.70;;;13.80;94.50;;;;;;5068900;28;19908;-66
2021/05/16 05:03:26;;;;;;;4.50;1.50;;;13.90;94.60;;;;;;5070133;28;20365;-66
2021/05/16 05:05:53;;;;;;;;;;;14.10;94.40;;;;;;5070829;28;20473;-67
2021/05/16 05:08:19;;;;;;;4.22;1.88;;;14.10;94.20;;;;;;5069979;28;19974;-67
2021/05/16 05:10:45;;;;;;;4.28;1.67;;;14.20;94.00;;;;;;5070100;28;20043;-67
2021/05/16 05:13:10;;;;;;;;;;;14.30;93.60;;;;;;5070117;28;20025;-67
2021/05/16 05:15:36;;;;;;;9.57;1.55;;;14.40;93.40;;;;;;5070012;28;19905;-66
2021/05/16 05:18:02;;;;;;;;;;;14.40;93.40;;;;;;5068382;28;20029;-67
2021/05/16 05:20:27;;;;;;;2.40;1.02;;;14.50;93.00;;;;;;5069922;28;19913;-67
2021/05/16 05:22:53;;;;;;;;;;;14.60;92.80;;;;;;5070091;28;20025;-66
2021/05/16 05:25:18;;;;;;;2.15;0.90;;;14.60;92.70;;;;;;5069985;28;19987;-66
2021/05/16 05:27:44;;;;;;;3.05;0.90;;;14.60;92.80;;;;;;5069846;28;20070;-67
2021/05/16 05:30:11;;;;;;;6.20;1.77;;;14.70;92.80;;;;;;5069571;28;20029;-67
2021/05/16 05:32:36;;;;;;;4.25;1.17;;;14.70;92.70;;;;;;5068668;28;20032;-66
2021/05/16 05:35:03;;;;;;;4.03;1.35;;;14.70;92.70;;;;;;5069814;28;20440;-66
2021/05/16 05:37:28;;;;;;;2.70;1.30;;;14.70;92.70;;;;;;5069372;28;20032;-66
2021/05/16 05:39:54;;;;;;;2.83;1.50;;;14.80;92.70;;;;;;5069704;28;20048;-66
2021/05/16 05:42:20;;;;;;;4.90;1.63;;;14.80;92.70;;;;;;5068388;28;20119;-67
2021/05/16 05:44:46;;;;;;;2.15;1.20;;;14.80;92.70;;;;;;5069558;28;20029;-66
2021/05/16 05:47:12;;;;;;;4.43;1.55;;;14.70;92.90;;;;;;5069113;28;20071;-66
2021/05/16 05:49:38;;;;;;;5.85;1.80;;;14.70;93.20;;;;;;5067570;28;20501;-67
2021/05/16 05:52:04;;;;;;;16.83;2.58;;;14.70;93.40;;;;;;5069023;28;20028;-66
2021/05/16 05:54:30;;;;;;;4.13;2.40;;;14.70;93.40;;;;;;5069179;28;20032;-66
2021/05/16 05:56:55;;;;;;;4.85;2.70;;;14.60;93.50;;;;;;5068964;28;20099;-66
2021/05/16 05:59:21;;;;;;;5.82;3.10;;;14.60;93.50;;;;;;5069108;28;20082;-66
2021/05/16 06:01:46;;;;;;;;;;;14.70;93.40;;;;;;5069720;28;20130;-67
2021/05/16 06:04:12;;;;;;;4.50;2.83;;;14.60;93.40;;;;;;5068872;28;20780;-67
2021/05/16 06:06:38;;;;;;;;;;;14.60;93.70;;;;;;5068126;28;20032;-68
2021/05/16 06:09:04;;;;;;;4.05;2.90;;;14.70;93.80;;;;;;5068604;28;19913;-67
2021/05/16 06:11:30;;;;;;;6.10;2.75;;;14.70;93.70;;;;;;5067585;28;20098;-67
2021/05/16 06:13:55;;;;;;;5.47;2.10;;;14.70;93.40;;;;;;5069144;28;20670;-67
2021/05/16 06:16:21;;;;;;;;;;;14.60;92.80;;;;;;5069341;28;20043;-67
2021/05/16 06:18:48;;;;;;;4.43;2.30;;;14.50;92.50;;;;;;5068529;28;19904;-67
2021/05/16 06:21:14;;;;;;;7.10;2.50;;;14.40;93.00;;;;;;5068936;28;20028;-67
2021/05/16 06:26:24;;;;;;;5.90;3.00;;;14.20;94.10;;;;;;5068837;28;20396;-65
2021/05/16 06:28:50;;;;;;;17.70;4.65;;;14.10;94.40;;;;;;5058520;28;20025;-66
2021/05/16 06:31:15;;;;;;;;;;;14.10;94.70;;;;;;5048920;28;20029;-66
2021/05/16 06:33:41;;;;;;;8.32;2.78;;;14.00;94.90;;;;;;5048524;28;20327;-65
2021/05/16 06:36:06;;;;;;;;;;;13.90;95.10;;;;;;5049018;28;20031;-65
2021/05/16 06:38:32;;;;;;;11.23;2.67;;;13.90;95.10;;;;;;5056396;28;20133;-66
2021/05/16 06:40:57;;;;;;;;;;;13.80;95.10;;;;;;5048385;28;20190;-66
2021/05/16 06:43:23;;;;;;;17.55;4.57;;;13.70;95.60;;;;;;5048102;28;20269;-66
2021/05/16 06:45:49;;;;;;;8.90;5.35;;;13.60;95.80;;;;;;5055334;28;20163;-67
2021/05/16 06:48:14;;;;;;;;;;;13.60;95.90;;;;;;5058198;28;20048;-67
2021/05/16 06:50:40;;;;;;;6.18;3.08;;;13.50;96.30;;;;;;5056531;28;20343;-67
2021/05/16 06:53:05;;;;;;;5.05;1.95;;;13.50;96.60;;;;;;5056616;28;20118;-66
2021/05/16 06:55:31;;;;;;;;;;;13.60;96.40;;;;;;5057877;28;20109;-66
2021/05/16 06:57:56;;;;;;;5.05;1.50;;;13.60;96.10;;;;;;5055345;28;19923;-67
2021/05/16 07:00:22;;;;;;;2.13;1.80;;;13.70;96.20;;;;;;5052781;28;20630;-66
2021/05/16 07:02:48;;;;;;;3.58;1.67;;;13.80;96.20;;;;;;5046657;28;20021;-67
2021/05/16 07:05:14;;;;;;;;;;;13.90;96.30;;;;;;5047920;28;20029;-66
2021/05/16 07:07:40;;;;;;;3.80;2.08;;;13.90;96.30;;;;;;5047778;28;20293;-67
2021/05/16 07:10:08;;;;;;;4.90;2.38;;;14.10;96.30;;;;;;5047897;28;20079;-66
2021/05/16 07:12:33;;;;;;;4.82;3.58;;;14.20;95.80;;;;;;5047520;28;20021;-66
2021/05/16 07:14:59;;;;;;;6.80;3.90;;;14.20;95.40;;;;;;5047865;28;20035;-68
2021/05/16 07:17:25;;;;;;;;;;;14.30;95.30;;;;;;5046058;28;20025;-67
2021/05/16 07:19:50;;;;;;;5.22;4.05;;;14.30;95.10;;;;;;5047674;28;19923;-66
2021/05/16 07:22:16;;;;;;;4.78;4.03;;;14.40;95.50;;;;;;5047373;28;20485;-67
2021/05/16 07:24:41;;;;;;;5.85;4.30;;;14.50;95.30;;;;;;5047736;28;20036;-69
2021/05/16 07:27:08;;;;;;;;;;;14.50;95.40;;;;;;5047702;28;20074;-67
2021/05/16 07:29:33;;;;;;;4.10;3.45;;;14.60;95.00;;;;;;5047653;28;19913;-67
2021/05/16 07:31:59;;;;;;;9.75;3.60;;;14.60;94.70;;;;;;5047054;28;20094;-67
2021/05/16 07:34:25;;;;;;;4.18;2.55;;;14.70;94.40;;;;;;5047345;28;20024;-65
2021/05/16 07:36:50;;;;;;;6.18;3.30;;;14.70;94.20;;;;;;5046904;28;20531;-68
2021/05/16 07:39:16;;;;;;;3.45;2.13;;;14.70;94.10;;;;;;5047308;28;20523;-67
2021/05/16 07:41:42;;;;;;;3.80;1.80;;;14.80;93.70;;;;;;5045609;28;20425;-66
2021/05/16 07:44:09;;;;;;;3.40;2.05;;;14.80;93.50;;;;;;5047241;28;20025;-65
2021/05/16 07:46:35;;;;;;;3.08;1.92;;;15.00;93.80;;;;;;5044804;28;20053;-67
2021/05/16 07:49:00;;;;;;;4.20;3.03;;;15.10;93.80;;;;;;5047412;28;20468;-67
2021/05/16 07:51:27;;;;;;;3.97;2.15;;;15.40;93.30;;;;;;5046956;28;20053;-67
2021/05/16 07:53:55;;;;;;;3.30;2.15;;;15.50;92.90;;;;;;5046765;28;20558;-69
2021/05/16 07:56:22;;;;;;;4.30;2.42;;;15.70;92.40;;;;;;5047003;28;20109;-67
2021/05/16 07:58:48;;;;;;;4.35;1.83;;;15.80;91.80;;;;;;5046981;28;20025;-68
2021/05/16 08:01:13;;;;;;;6.63;1.50;;;15.90;91.40;;;;;;5046416;28;20029;-67
2021/05/16 08:03:39;;;;;;;2.17;1.35;;;16.00;91.40;;;;;;5046694;28;20074;-67
2021/05/16 08:06:05;;;;;;;3.85;1.60;;;16.10;91.00;;;;;;5046998;28;20097;-67
2021/05/16 08:08:30;;;;;;;2.45;1.80;;;16.30;91.00;;;;;;5046508;28;20033;-67
2021/05/16 08:10:56;;;;;;;3.38;1.30;;;16.40;90.50;;;;;;5046819;28;20032;-66
2021/05/16 08:13:21;;;;;;;3.15;1.60;;;16.50;90.60;;;;;;5046760;28;20033;-66
2021/05/16 08:15:47;;;;;;;3.55;1.00;;;16.60;90.60;;;;;;5054468;28;20056;-67
2021/05/16 08:18:13;;;;;;;3.40;2.05;;;16.60;90.20;;;;;;5055245;28;20032;-66
2021/05/16 08:20:39;;;;;;;3.88;1.75;;;16.60;90.20;;;;;;5054784;28;20044;-67
2021/05/16 08:23:05;;;;;;;4.00;2.55;;;16.40;90.00;;;;;;5049097;28;20047;-68
2021/05/16 08:25:33;;;;;;;3.90;2.78;;;16.30;90.20;;;;;;5046248;28;20681;-67
2021/05/16 08:27:59;;;;;;;4.45;2.88;;;16.10;90.60;;;;;;5046541;28;20021;-67
2021/05/16 08:30:25;;;;;;;4.18;2.58;;;16.00;91.20;;;;;;5046282;28;20056;-67
2021/05/16 08:32:51;;;;;;;4.13;2.75;;;15.90;91.20;;;;;;5045006;28;20048;-67
2021/05/16 08:35:16;;;;;;;5.00;3.50;;;16.00;91.20;;;;;;5045490;28;20052;-66
2021/05/16 08:37:42;;;;;;;4.05;2.10;;;16.00;91.20;;;;;;5045780;28;20037;-66
2021/05/16 08:40:09;;;;;;;3.08;2.20;;;16.20;91.00;;;;;;5045070;28;20049;-66
2021/05/16 08:42:35;;;;;;;3.38;2.10;;;16.30;90.60;;;;;;5041431;28;20033;-67
2021/05/16 08:45:02;;;;;;;3.08;1.95;;;16.50;90.30;;;;;;5044673;28;20079;-68
2021/05/16 08:47:29;;;;;;;4.03;2.47;;;16.60;89.80;;;;;;5054278;28;20528;-68
2021/05/16 08:49:55;;;;;;;4.25;1.77;;;16.80;89.50;;;;;;5045597;28;20111;-68
2021/05/16 08:52:21;;;;;;;4.15;1.95;;;16.90;90.00;;;;;;5052587;28;20081;-69
2021/05/16 08:54:52;;;;;;;4.65;1.70;;;17.00;89.10;;;;;;5053204;28;20040;-68
2021/05/16 08:57:18;;;;;;;2.83;1.80;;;17.20;86.80;;;;;;5052856;28;20033;-67
2021/05/16 09:00:14;;;;;;;5.47;2.95;;;17.30;86.90;;;;;;5053159;28;20032;-68
2021/05/16 09:02:59;;;;;;;4.43;2.00;;;17.40;86.40;;;;;;5055673;28;20052;-66
2021/05/16 09:05:27;;;;;;;2.90;1.55;;;17.60;85.40;;;;;;5049395;28;20120;-67
2021/05/16 09:08:03;;;;;;;3.33;1.60;;;17.80;83.90;;;;;;5051168;28;20033;-66
2021/05/16 09:10:28;;;;;;;;;;;18.00;84.20;;;;;;5053944;28;20120;-66
2021/05/16 09:13:09;;;;;;;2.93;1.70;;;18.30;82.70;;;;;;5052523;28;20007;-67
2021/05/16 09:15:34;;;;;;;5.60;1.40;;;18.50;81.10;;;;;;5052912;28;20048;-66
2021/05/16 09:18:00;;;;;;;5.50;2.78;;;18.70;79.10;;;;;;5051686;28;20033;-67
2021/05/16 09:20:26;;;;;;;3.33;1.38;;;18.80;77.70;;;;;;5054684;28;20108;-65
2021/05/16 09:22:52;;;;;;;1.17;0.65;;;19.00;76.40;;;;;;5053967;28;20035;-66
2021/05/16 09:25:24;;;;;;;2.80;1.00;;;19.20;75.30;;;;;;5054725;28;20420;-66
2021/05/16 09:27:52;;;;;;;2.63;0.90;;;19.50;74.60;;;;;;5061689;28;20032;-66
2021/05/16 09:30:18;;;;;;;1.60;0.70;;;19.80;72.90;;;;;;5053248;28;20029;-66
2021/05/16 09:33:04;;;;;;;4.28;0.90;;;20.10;70.50;;;;;;5079201;28;21042;-66
2021/05/16 09:35:47;;;;;;;3.20;0.90;;;20.20;71.80;;;;;;5088611;28;20078;-67
2021/05/16 09:38:23;;;;;;;5.88;1.13;;;20.10;66.20;;;;;;5089639;28;20032;-67
2021/05/16 09:40:53;;;;;;;3.00;0.80;;;20.30;67.00;;;;;;5089292;28;20039;-66
2021/05/16 09:43:29;;;;;;;5.13;0.80;;;20.60;66.60;;;;;;5088414;28;20063;-67
2021/05/16 09:46:02;;;;;;;4.18;0.93;;;21.30;65.80;;;;;;5088565;28;20048;-66
2021/05/16 09:48:31;;;;;;;0.95;0.50;;;21.80;65.00;;;;;;5088957;28;20036;-68
2021/05/16 09:51:12;;;;;;;1.35;0.85;;;22.40;62.00;;;;;;5088686;28;20433;-66
2021/05/16 09:54:04;;;;;;;0.77;0.50;;;22.60;57.40;;;;;;5088831;28;20123;-67
2021/05/16 09:56:36;;;;;;;2.85;0.52;;;22.50;58.60;;;;;;5089472;28;20670;-67
2021/05/16 09:59:06;;;;;;;5.38;0.80;;;22.40;57.10;;;;;;5088694;28;20492;-67
2021/05/16 10:01:33;;;;;;;1.98;0.77;;;22.40;58.90;;;;;;5089422;28;20036;-67
2021/05/16 10:04:02;;;;;;;3.47;0.90;;;22.40;59.00;;;;;;5087519;28;20032;-66
2021/05/16 10:06:28;;;;;;;5.60;0.68;;;22.50;60.20;;;;;;5089056;28;20024;-67
2021/05/16 10:08:55;;;;;;;2.17;0.77;;;22.20;59.80;;;;;;5088977;28;20370;-67
2021/05/16 10:11:27;;;;;;;1.42;0.70;;;21.80;57.60;;;;;;5089253;28;20036;-67
2021/05/16 10:13:58;;;;;;;1.90;0.70;;;21.80;60.00;;;;;;5088578;28;20031;-67
2021/05/16 10:16:24;;;;;;;3.63;0.80;;;21.60;59.40;;;;;;5088894;28;20043;-67
2021/05/16 10:18:51;;;;;;;3.03;0.75;;;21.50;62.10;;;;;;5087597;28;20028;-66
2021/05/16 10:21:21;;;;;;;2.17;0.80;;;21.40;62.30;;;;;;5089075;28;20110;-67
2021/05/16 10:23:47;;;;;;;2.05;0.70;;;21.30;63.80;;;;;;5087722;28;20115;-67
2021/05/16 10:26:21;;;;;;;1.15;0.60;;;21.50;62.50;;;;;;5088572;28;20114;-67
2021/05/16 10:29:09;;;;;;;2.33;0.65;;;21.40;57.70;;;;;;5089002;28;20024;-66
2021/05/16 10:31:46;;;;;;;2.65;0.50;;;20.80;60.50;;;;;;5088762;28;20031;-66
2021/05/16 10:34:27;;;;;;;2.67;0.95;;;20.30;62.60;;;;;;5088684;28;20400;-68
2021/05/16 10:37:03;;;;;;;1.95;0.50;;;19.80;67.70;;;;;;5088455;28;20032;-67
2021/05/16 10:39:38;;;;;;;2.45;0.73;;;19.40;68.50;;;;;;5087520;28;20058;-65
2021/05/16 10:42:32;;;;;;;1.45;0.60;;;18.90;70.70;;;;;;5088602;28;20461;-66
2021/05/16 10:45:12;;;;;;;3.72;0.82;;;18.50;70.90;;;;;;5087391;28;20061;-66
2021/05/16 10:47:53;;;;;;;1.88;0.90;;;18.00;72.40;;;;;;5088467;28;20032;-66
2021/05/16 10:50:19;;;;;;;1.95;0.57;;;17.70;75.90;;;;;;5088093;28;20036;-67
2021/05/16 10:53:04;;;;;;;2.45;0.50;;;17.40;78.30;;;;;;5088423;28;20024;-67
2021/05/16 10:55:39;;;;;;;2.88;0.75;;;17.30;79.50;;;;;;5087880;28;20032;-67
2021/05/16 10:58:07;;;;;;;2.67;0.87;;;17.30;80.50;;;;;;5088255;28;20605;-67
2021/05/16 11:00:43;;;;;;;4.80;0.88;;;17.40;81.80;;;;;;5087825;28;20047;-67
2021/05/16 11:03:13;;;;;;;2.55;0.77;;;17.70;81.70;;;;;;5087665;28;20111;-67
2021/05/16 11:05:47;;;;;;;1.88;0.70;;;18.00;80.90;;;;;;5087942;28;20515;-67
2021/05/16 11:08:16;;;;;;;1.25;0.73;;;18.40;79.00;;;;;;5088168;28;20077;-67
2021/05/16 11:10:45;;;;;;;1.63;0.52;;;18.50;77.30;;;;;;5087690;28;20060;-67
2021/05/16 11:13:12;;;;;;;1.35;0.75;;;18.50;75.60;;;;;;5087741;28;20665;-68
2021/05/16 11:16:00;;;;;;;1.23;0.50;;;18.40;77.20;;;;;;5087708;28;20077;-67
2021/05/16 11:18:26;;;;;;;1.15;0.50;;;18.10;77.10;;;;;;5087342;28;20434;-66
2021/05/16 11:20:54;;;;;;;1.85;0.70;;;17.90;76.70;;;;;;5087411;28;20036;-67
2021/05/16 11:23:25;;;;;;;1.17;0.70;;;18.00;75.00;;;;;;5087851;28;20036;-67
2021/05/16 11:26:00;;;;;;;5.55;0.50;;;18.30;73.80;;;;;;5087750;28;20419;-68
2021/05/16 11:28:28;;;;;;;1.30;0.60;;;18.30;73.60;;;;;;5087049;28;20039;-68
2021/05/16 11:30:56;;;;;;;1.35;0.52;;;18.50;73.40;;;;;;5087114;28;20089;-67
2021/05/16 11:33:28;;;;;;;1.83;0.70;;;18.60;73.90;;;;;;5087607;28;20020;-67
2021/05/16 11:35:54;;;;;;;6.78;0.90;;;18.90;73.60;;;;;;5087583;28;20107;-66
2021/05/16 11:38:31;;;;;;;2.13;0.80;;;19.10;72.20;;;;;;5087173;28;20032;-68
2021/05/16 11:40:57;;;;;;;1.42;0.82;;;19.20;71.20;;;;;;5087477;28;20028;-67
2021/05/16 11:43:28;;;;;;;1.77;0.73;;;19.20;70.80;;;;;;5086911;28;20028;-67
2021/05/16 11:45:54;;;;;;;3.80;0.98;;;19.10;71.40;;;;;;5085641;28;20055;-67
2021/05/16 11:51:21;;;;;;;1.65;1.30;;;18.60;74.60;;;;;;5078228;28;20052;-66
2021/05/16 11:53:54;;;;;;;2.85;1.02;;;18.10;77.60;;;;;;5087193;28;20035;-68
2021/05/16 11:56:27;;;;;;;1.60;0.80;;;17.80;78.30;;;;;;5087225;28;20028;-67
2021/05/16 11:58:57;;;;;;;1.80;0.73;;;17.40;79.50;;;;;;5086730;28;20016;-67
2021/05/16 12:01:25;;;;;;;2.15;1.00;;;17.10;81.20;;;;;;5086679;28;20059;-67
2021/05/16 12:03:57;;;;;;;1.88;0.60;;;17.00;81.80;;;;;;5087224;28;20500;-67
2021/05/16 12:06:23;;;;;;;1.25;0.82;;;17.00;81.70;;;;;;5086608;28;20035;-68
2021/05/16 12:09:06;;;;;;;1.33;1.00;;;17.20;81.90;;;;;;5086951;28;20032;-67
2021/05/16 12:11:35;;;;;;;4.45;1.17;;;17.40;82.50;;;;;;5086634;28;20734;-67
2021/05/16 12:14:24;;;;;;;2.10;1.20;;;17.80;82.00;;;;;;5085141;28;20023;-67
2021/05/16 12:16:54;;;;;;;3.67;1.50;;;18.10;80.00;;;;;;5086913;28;20028;-69
2021/05/16 12:19:21;;;;;;;4.35;1.60;;;18.40;79.10;;;;;;5086581;28;20036;-69
2021/05/16 12:21:50;;;;;;;1.30;1.00;;;18.60;76.80;;;;;;5086644;28;20527;-66
2021/05/16 12:24:21;;;;;;;1.08;0.80;;;18.80;75.50;;;;;;5086592;28;20055;-65
2021/05/16 12:26:47;;;;;;;2.38;1.30;;;18.80;74.70;;;;;;5086528;28;20043;-66
2021/05/16 12:29:15;;;;;;;2.30;1.00;;;18.70;75.70;;;;;;5086331;28;20020;-68
2021/05/16 12:31:41;;;;;;;1.67;0.80;;;18.70;76.10;;;;;;5085007;28;20028;-69
2021/05/16 12:34:08;;;;;;;1.00;0.70;;;18.80;74.70;;;;;;5086653;28;20052;-67
2021/05/16 12:36:53;;;;;;;1.35;1.00;;;19.00;73.60;;;;;;5086216;28;20054;-66
2021/05/16 12:39:38;;;;;;;1.98;1.23;;;19.40;73.20;;;;;;5086549;28;20020;-66
2021/05/16 12:42:36;;;;;;;3.75;1.40;;;19.60;69.10;;;;;;5086086;28;20066;-66
2021/05/16 12:45:19;;;;;;;4.32;1.30;;;19.30;69.80;;;;;;5084312;28;20054;-69
2021/05/16 12:47:59;;;;;;;1.02;0.73;;;19.40;73.60;;;;;;5086437;28;20032;-66
2021/05/16 12:50:34;;;;;;;1.42;1.10;;;19.60;72.10;;;;;;5086296;28;20039;-65
2021/05/16 12:53:31;;;;;;;4.43;1.23;;;19.60;71.60;;;;;;5086250;28;20541;-66
2021/05/16 12:55:56;;;;;;;6.78;1.25;;;19.60;71.70;;;;;;5086013;28;20198;-66
2021/05/16 12:58:37;;;;;;;3.17;0.93;;;19.40;72.80;;;;;;5085623;28;20028;-67
2021/05/16 13:01:03;;;;;;;9.98;0.65;;;19.40;73.00;;;;;;5086801;28;20504;-65
2021/05/16 13:03:33;;;;;;;0.88;0.43;;;19.50;71.40;;;;;;5090414;28;20031;-69
2021/05/16 13:06:01;;;;;;;0.90;0.40;;;19.60;69.30;;;;;;5090240;28;20078;-68
2021/05/16 13:08:40;;;;;;;1.52;0.65;;;19.70;67.60;;;;;;5089947;28;20012;-68
2021/05/16 13:11:10;;;;;;;0.55;0.38;;;19.80;68.30;;;;;;5090155;28;20059;-69